sensor_id;sensor_type;location;lat;lon;timestamp;pressure;altitude;pressure_sealevel;temperature;humidity
18145;BME280;14857;41.200;-8.326;2022-09-09T00:02:06;100319.38;;;20.59;100.00
18145;BME280;14857;41.200;-8.326;2022-09-09T00:04:39;100335.31;;;20.51;100.00
18145;BME280;14857;41.200;-8.326;2022-09-09T00:07:13;100329.00;;;20.43;100.00
18145;BME280;14857;41.200;-8.326;2022-09-09T00:09:47;100344.94;;;20.35;100.00
18145;BME280;14857;41.200;-8.326;2022-09-09T00:12:32;100340.59;;;20.26;100.00
18145;BME280;14857;41.200;-8.326;2022-09-09T00:15:10;100344.38;;;20.24;100.00
18145;BME280;14857;41.200;-8.326;2022-09-09T00:17:43;100347.53;;;20.19;100.00
18145;BME280;14857;41.200;-8.326;2022-09-09T00:20:21;100352.03;;;20.19;100.00
18145;BME280;14857;41.200;-8.326;2022-09-09T00:23:00;100351.84;;;20.12;100.00
18145;BME280;14857;41.200;-8.326;2022-09-09T00:25:39;100356.13;;;20.13;100.00
18145;BME280;14857;41.200;-8.326;2022-09-09T00:28:16;100361.63;;;20.12;100.00
18145;BME280;14857;41.200;-8.326;2022-09-09T00:30:47;100354.13;;;20.07;100.00
18145;BME280;14857;41.200;-8.326;2022-09-09T00:33:19;100345.78;;;19.94;100.00
18145;BME280;14857;41.200;-8.326;2022-09-09T00:35:51;100362.28;;;20.06;100.00
18145;BME280;14857;41.200;-8.326;2022-09-09T00:38:23;100367.06;;;20.10;100.00
18145;BME280;14857;41.200;-8.326;2022-09-09T00:40:58;100358.47;;;20.08;100.00
18145;BME280;14857;41.200;-8.326;2022-09-09T00:43:30;100342.16;;;19.95;100.00
18145;BME280;14857;41.200;-8.326;2022-09-09T00:46:14;100367.22;;;20.01;100.00
18145;BME280;14857;41.200;-8.326;2022-09-09T00:48:56;100357.88;;;19.88;100.00
18145;BME280;14857;41.200;-8.326;2022-09-09T00:51:39;100360.72;;;19.87;100.00
18145;BME280;14857;41.200;-8.326;2022-09-09T00:54:26;100358.34;;;19.84;100.00
18145;BME280;14857;41.200;-8.326;2022-09-09T00:57:07;100359.69;;;19.80;100.00
18145;BME280;14857;41.200;-8.326;2022-09-09T00:59:46;100359.69;;;19.80;100.00
18145;BME280;14857;41.200;-8.326;2022-09-09T01:02:25;100357.34;;;19.77;100.00
18145;BME280;14857;41.200;-8.326;2022-09-09T01:05:01;100348.38;;;19.70;100.00
18145;BME280;14857;41.200;-8.326;2022-09-09T01:07:33;100345.16;;;19.58;100.00
18145;BME280;14857;41.200;-8.326;2022-09-09T01:10:07;100344.81;;;19.61;100.00
18145;BME280;14857;41.200;-8.326;2022-09-09T01:12:41;100351.47;;;19.57;100.00
18145;BME280;14857;41.200;-8.326;2022-09-09T01:15:21;100338.00;;;19.51;100.00
18145;BME280;14857;41.200;-8.326;2022-09-09T01:17:58;100348.50;;;19.68;100.00
18145;BME280;14857;41.200;-8.326;2022-09-09T01:20:39;100346.88;;;19.75;100.00
18145;BME280;14857;41.200;-8.326;2022-09-09T01:23:30;100347.41;;;19.79;100.00
18145;BME280;14857;41.200;-8.326;2022-09-09T01:26:21;100348.25;;;19.79;100.00
18145;BME280;14857;41.200;-8.326;2022-09-09T01:28:52;100345.59;;;19.79;100.00
18145;BME280;14857;41.200;-8.326;2022-09-09T01:31:31;100334.78;;;19.81;100.00
18145;BME280;14857;41.200;-8.326;2022-09-09T01:34:01;100318.50;;;19.68;100.00
18145;BME280;14857;41.200;-8.326;2022-09-09T01:36:34;100332.63;;;19.76;100.00
18145;BME280;14857;41.200;-8.326;2022-09-09T01:39:07;100318.19;;;19.71;100.00
18145;BME280;14857;41.200;-8.326;2022-09-09T01:41:37;100325.50;;;19.77;100.00
18145;BME280;14857;41.200;-8.326;2022-09-09T01:44:10;100329.81;;;19.78;100.00
18145;BME280;14857;41.200;-8.326;2022-09-09T01:46:43;100328.50;;;19.74;100.00
18145;BME280;14857;41.200;-8.326;2022-09-09T01:49:17;100332.28;;;19.71;100.00
18145;BME280;14857;41.200;-8.326;2022-09-09T01:51:49;100324.28;;;19.63;100.00
18145;BME280;14857;41.200;-8.326;2022-09-09T01:54:24;100328.44;;;19.66;100.00
18145;BME280;14857;41.200;-8.326;2022-09-09T01:57:04;100341.75;;;19.74;100.00
18145;BME280;14857;41.200;-8.326;2022-09-09T01:59:49;100327.47;;;19.67;100.00
18145;BME280;14857;41.200;-8.326;2022-09-09T02:02:25;100333.47;;;19.77;100.00
18145;BME280;14857;41.200;-8.326;2022-09-09T02:05:17;100334.47;;;19.76;100.00
18145;BME280;14857;41.200;-8.326;2022-09-09T02:07:57;100332.13;;;19.73;100.00
18145;BME280;14857;41.200;-8.326;2022-09-09T02:10:42;100331.81;;;19.76;100.00
18145;BME280;14857;41.200;-8.326;2022-09-09T02:13:25;100324.50;;;19.70;100.00
18145;BME280;14857;41.200;-8.326;2022-09-09T02:15:57;100344.09;;;19.77;100.00
18145;BME280;14857;41.200;-8.326;2022-09-09T02:18:32;100330.13;;;19.75;100.00
18145;BME280;14857;41.200;-8.326;2022-09-09T02:21:05;100333.09;;;19.64;100.00
18145;BME280;14857;41.200;-8.326;2022-09-09T02:23:35;100326.56;;;19.58;100.00
18145;BME280;14857;41.200;-8.326;2022-09-09T02:26:11;100334.41;;;19.68;100.00
18145;BME280;14857;41.200;-8.326;2022-09-09T02:28:53;100329.63;;;19.71;100.00
18145;BME280;14857;41.200;-8.326;2022-09-09T02:31:24;100332.78;;;19.67;100.00
18145;BME280;14857;41.200;-8.326;2022-09-09T02:34:01;100324.31;;;19.71;100.00
18145;BME280;14857;41.200;-8.326;2022-09-09T02:36:33;100324.63;;;19.68;100.00
18145;BME280;14857;41.200;-8.326;2022-09-09T02:39:03;100314.34;;;19.65;100.00
18145;BME280;14857;41.200;-8.326;2022-09-09T02:41:37;100318.50;;;19.68;100.00
18145;BME280;14857;41.200;-8.326;2022-09-09T02:44:11;100315.19;;;19.66;100.00
18145;BME280;14857;41.200;-8.326;2022-09-09T02:46:51;100316.53;;;19.70;100.00
18145;BME280;14857;41.200;-8.326;2022-09-09T02:49:31;100321.84;;;19.70;100.00
18145;BME280;14857;41.200;-8.326;2022-09-09T02:52:06;100312.69;;;19.64;100.00
18145;BME280;14857;41.200;-8.326;2022-09-09T02:54:38;100323.13;;;19.58;100.00
18145;BME280;14857;41.200;-8.326;2022-09-09T02:57:12;100326.25;;;19.61;100.00
18145;BME280;14857;41.200;-8.326;2022-09-09T02:59:48;100323.91;;;19.58;100.00
18145;BME280;14857;41.200;-8.326;2022-09-09T03:02:19;100333.94;;;19.64;100.00
18145;BME280;14857;41.200;-8.326;2022-09-09T03:04:53;100330.25;;;19.65;100.00
18145;BME280;14857;41.200;-8.326;2022-09-09T03:07:22;100325.78;;;19.66;100.00
18145;BME280;14857;41.200;-8.326;2022-09-09T03:09:52;100319.31;;;19.68;100.00
18145;BME280;14857;41.200;-8.326;2022-09-09T03:12:25;100313.13;;;19.52;100.00
18145;BME280;14857;41.200;-8.326;2022-09-09T03:14:55;100330.13;;;19.67;100.00
18145;BME280;14857;41.200;-8.326;2022-09-09T03:17:24;100334.72;;;19.65;100.00
18145;BME280;14857;41.200;-8.326;2022-09-09T03:19:56;100327.28;;;19.68;100.00
18145;BME280;14857;41.200;-8.326;2022-09-09T03:22:26;100319.84;;;19.72;100.00
18145;BME280;14857;41.200;-8.326;2022-09-09T03:24:57;100327.66;;;19.73;100.00
18145;BME280;14857;41.200;-8.326;2022-09-09T03:27:25;100321.34;;;19.74;100.00
18145;BME280;14857;41.200;-8.326;2022-09-09T03:29:56;100321.50;;;19.73;100.00
18145;BME280;14857;41.200;-8.326;2022-09-09T03:32:25;100315.03;;;19.75;100.00
18145;BME280;14857;41.200;-8.326;2022-09-09T03:34:56;100315.03;;;19.75;100.00
18145;BME280;14857;41.200;-8.326;2022-09-09T03:37:25;100322.34;;;19.81;100.00
18145;BME280;14857;41.200;-8.326;2022-09-09T03:39:54;100320.34;;;19.75;100.00
18145;BME280;14857;41.200;-8.326;2022-09-09T03:42:23;100312.88;;;19.71;100.00
18145;BME280;14857;41.200;-8.326;2022-09-09T03:44:54;100332.78;;;19.75;100.00
18145;BME280;14857;41.200;-8.326;2022-09-09T03:47:26;100328.81;;;19.79;100.00
18145;BME280;14857;41.200;-8.326;2022-09-09T03:50:04;100311.22;;;19.70;100.00
18145;BME280;14857;41.200;-8.326;2022-09-09T03:52:37;100319.19;;;19.78;100.00
18145;BME280;14857;41.200;-8.326;2022-09-09T03:55:08;100317.56;;;19.77;100.00
18145;BME280;14857;41.200;-8.326;2022-09-09T03:57:37;100322.47;;;19.64;100.00
18145;BME280;14857;41.200;-8.326;2022-09-09T04:00:09;100312.63;;;19.48;100.00
18145;BME280;14857;41.200;-8.326;2022-09-09T04:05:44;100318.47;;;19.60;100.00
18145;BME280;14857;41.200;-8.326;2022-09-09T04:08:12;100307.22;;;19.66;100.00
18145;BME280;14857;41.200;-8.326;2022-09-09T04:10:42;100317.50;;;19.69;100.00
18145;BME280;14857;41.200;-8.326;2022-09-09T04:13:13;100319.44;;;19.59;100.00
18145;BME280;14857;41.200;-8.326;2022-09-09T04:15:43;100313.63;;;19.55;100.00
18145;BME280;14857;41.200;-8.326;2022-09-09T04:18:12;100310.19;;;19.63;100.00
18145;BME280;14857;41.200;-8.326;2022-09-09T04:20:47;100300.75;;;19.60;100.00
18145;BME280;14857;41.200;-8.326;2022-09-09T04:23:20;100317.16;;;19.64;100.00
18145;BME280;14857;41.200;-8.326;2022-09-09T04:25:50;100305.22;;;19.60;100.00
18145;BME280;14857;41.200;-8.326;2022-09-09T04:28:21;100315.53;;;19.71;100.00
18145;BME280;14857;41.200;-8.326;2022-09-09T04:30:50;100307.59;;;19.71;100.00
18145;BME280;14857;41.200;-8.326;2022-09-09T04:33:20;100307.25;;;19.74;100.00
18145;BME280;14857;41.200;-8.326;2022-09-09T04:35:52;100304.63;;;19.82;100.00
18145;BME280;14857;41.200;-8.326;2022-09-09T04:38:24;100323.06;;;19.83;100.00
18145;BME280;14857;41.200;-8.326;2022-09-09T04:40:54;100308.94;;;19.83;100.00
18145;BME280;14857;41.200;-8.326;2022-09-09T04:43:24;100320.91;;;19.87;100.00
18145;BME280;14857;41.200;-8.326;2022-09-09T04:45:59;100317.50;;;19.69;100.00
18145;BME280;14857;41.200;-8.326;2022-09-09T04:48:27;100323.66;;;19.69;100.00
18145;BME280;14857;41.200;-8.326;2022-09-09T04:50:59;100318.22;;;19.45;100.00
18145;BME280;14857;41.200;-8.326;2022-09-09T04:53:30;100317.41;;;19.45;100.00
18145;BME280;14857;41.200;-8.326;2022-09-09T04:56:03;100321.38;;;19.41;100.00
18145;BME280;14857;41.200;-8.326;2022-09-09T04:58:36;100318.91;;;19.47;100.00
18145;BME280;14857;41.200;-8.326;2022-09-09T05:01:07;100314.69;;;19.36;100.00
18145;BME280;14857;41.200;-8.326;2022-09-09T05:03:37;100323.31;;;19.38;100.00
18145;BME280;14857;41.200;-8.326;2022-09-09T05:06:12;100320.31;;;19.33;100.00
18145;BME280;14857;41.200;-8.326;2022-09-09T05:08:42;100329.66;;;19.20;100.00
18145;BME280;14857;41.200;-8.326;2022-09-09T05:11:19;100334.13;;;19.19;100.00
18145;BME280;14857;41.200;-8.326;2022-09-09T05:13:49;100328.44;;;19.06;100.00
18145;BME280;14857;41.200;-8.326;2022-09-09T05:16:19;100325.47;;;19.09;100.00
18145;BME280;14857;41.200;-8.326;2022-09-09T05:18:50;100321.47;;;19.05;100.00
18145;BME280;14857;41.200;-8.326;2022-09-09T05:21:22;100308.63;;;19.18;100.00
18145;BME280;14857;41.200;-8.326;2022-09-09T05:23:52;100329.56;;;19.29;100.00
18145;BME280;14857;41.200;-8.326;2022-09-09T05:26:21;100323.47;;;19.37;100.00
18145;BME280;14857;41.200;-8.326;2022-09-09T05:28:52;100329.97;;;19.17;100.00
18145;BME280;14857;41.200;-8.326;2022-09-09T05:31:21;100329.22;;;19.24;100.00
18145;BME280;14857;41.200;-8.326;2022-09-09T05:33:53;100331.34;;;19.21;100.00
18145;BME280;14857;41.200;-8.326;2022-09-09T05:36:23;100325.31;;;19.11;100.00
18145;BME280;14857;41.200;-8.326;2022-09-09T05:38:55;100334.44;;;19.16;100.00
18145;BME280;14857;41.200;-8.326;2022-09-09T05:41:26;100335.19;;;19.01;100.00
18145;BME280;14857;41.200;-8.326;2022-09-09T05:43:57;100327.91;;;19.03;100.00
18145;BME280;14857;41.200;-8.326;2022-09-09T05:46:28;100336.31;;;18.98;100.00
18145;BME280;14857;41.200;-8.326;2022-09-09T05:48:57;100334.34;;;19.00;100.00
18145;BME280;14857;41.200;-8.326;2022-09-09T05:51:30;100343.03;;;19.10;100.00
18145;BME280;14857;41.200;-8.326;2022-09-09T05:54:04;100320.09;;;19.01;100.00
18145;BME280;14857;41.200;-8.326;2022-09-09T05:56:36;100342.19;;;19.10;100.00
18145;BME280;14857;41.200;-8.326;2022-09-09T05:59:07;100346.00;;;19.07;100.00
18145;BME280;14857;41.200;-8.326;2022-09-09T06:01:38;100344.34;;;19.06;100.00
18145;BME280;14857;41.200;-8.326;2022-09-09T06:04:10;100349.78;;;19.05;100.00
18145;BME280;14857;41.200;-8.326;2022-09-09T06:06:41;100348.22;;;18.94;100.00
18145;BME280;14857;41.200;-8.326;2022-09-09T06:09:16;100355.72;;;18.99;100.00
18145;BME280;14857;41.200;-8.326;2022-09-09T06:11:45;100350.44;;;18.81;100.00
18145;BME280;14857;41.200;-8.326;2022-09-09T06:14:14;100335.63;;;18.70;100.00
18145;BME280;14857;41.200;-8.326;2022-09-09T06:16:47;100357.34;;;18.74;100.00
18145;BME280;14857;41.200;-8.326;2022-09-09T06:19:23;100357.75;;;18.87;100.00
18145;BME280;14857;41.200;-8.326;2022-09-09T06:21:57;100358.16;;;18.92;100.00
18145;BME280;14857;41.200;-8.326;2022-09-09T06:24:29;100351.47;;;18.88;100.00
18145;BME280;14857;41.200;-8.326;2022-09-09T06:27:00;100356.13;;;18.86;100.00
18145;BME280;14857;41.200;-8.326;2022-09-09T06:29:32;100360.31;;;18.97;100.00
18145;BME280;14857;41.200;-8.326;2022-09-09T06:32:02;100347.34;;;18.85;100.00
18145;BME280;14857;41.200;-8.326;2022-09-09T06:34:31;100361.47;;;18.94;100.00
18145;BME280;14857;41.200;-8.326;2022-09-09T06:37:01;100364.94;;;19.12;100.00
18145;BME280;14857;41.200;-8.326;2022-09-09T06:39:41;100364.50;;;19.25;100.00
18145;BME280;14857;41.200;-8.326;2022-09-09T06:42:10;100360.09;;;19.33;100.00
18145;BME280;14857;41.200;-8.326;2022-09-09T06:44:50;100371.47;;;19.52;100.00
18145;BME280;14857;41.200;-8.326;2022-09-09T06:47:45;100367.22;;;19.59;100.00
18145;BME280;14857;41.200;-8.326;2022-09-09T06:50:14;100365.63;;;19.40;100.00
18145;BME280;14857;41.200;-8.326;2022-09-09T06:52:47;100375.13;;;19.51;100.00
18145;BME280;14857;41.200;-8.326;2022-09-09T06:55:15;100379.16;;;19.55;100.00
18145;BME280;14857;41.200;-8.326;2022-09-09T06:57:45;100378.28;;;19.80;100.00
18145;BME280;14857;41.200;-8.326;2022-09-09T07:00:18;100383.91;;;19.85;100.00
18145;BME280;14857;41.200;-8.326;2022-09-09T07:02:46;100383.31;;;19.99;100.00
18145;BME280;14857;41.200;-8.326;2022-09-09T07:05:18;100383.00;;;20.02;100.00
18145;BME280;14857;41.200;-8.326;2022-09-09T07:07:50;100375.91;;;20.19;100.00
18145;BME280;14857;41.200;-8.326;2022-09-09T07:10:19;100383.59;;;20.30;100.00
18145;BME280;14857;41.200;-8.326;2022-09-09T07:12:50;100375.03;;;20.10;100.00
18145;BME280;14857;41.200;-8.326;2022-09-09T07:15:21;100380.97;;;20.38;100.00
18145;BME280;14857;41.200;-8.326;2022-09-09T07:17:50;100386.47;;;20.45;100.00
18145;BME280;14857;41.200;-8.326;2022-09-09T07:20:20;100374.53;;;20.73;100.00
18145;BME280;14857;41.200;-8.326;2022-09-09T07:22:54;100372.53;;;20.99;100.00
18145;BME280;14857;41.200;-8.326;2022-09-09T07:25:23;100370.38;;;20.86;100.00
18145;BME280;14857;41.200;-8.326;2022-09-09T07:27:53;100379.19;;;20.71;100.00
18145;BME280;14857;41.200;-8.326;2022-09-09T07:30:22;100371.84;;;21.92;100.00
18145;BME280;14857;41.200;-8.326;2022-09-09T07:32:55;100341.19;;;22.95;100.00
18145;BME280;14857;41.200;-8.326;2022-09-09T07:35:25;100346.91;;;23.95;100.00
18145;BME280;14857;41.200;-8.326;2022-09-09T07:37:55;100347.41;;;24.34;100.00
18145;BME280;14857;41.200;-8.326;2022-09-09T07:40:25;100342.56;;;24.66;100.00
18145;BME280;14857;41.200;-8.326;2022-09-09T07:42:54;100348.09;;;25.41;100.00
18145;BME280;14857;41.200;-8.326;2022-09-09T07:45:22;100341.50;;;26.25;100.00
18145;BME280;14857;41.200;-8.326;2022-09-09T07:47:51;100349.00;;;27.28;100.00
18145;BME280;14857;41.200;-8.326;2022-09-09T07:50:20;100336.28;;;28.26;100.00
18145;BME280;14857;41.200;-8.326;2022-09-09T07:52:50;100338.75;;;28.90;100.00
18145;BME280;14857;41.200;-8.326;2022-09-09T07:55:21;100339.91;;;29.61;100.00
18145;BME280;14857;41.200;-8.326;2022-09-09T07:57:53;100353.41;;;30.28;100.00
18145;BME280;14857;41.200;-8.326;2022-09-09T08:00:23;100355.31;;;30.09;100.00
18145;BME280;14857;41.200;-8.326;2022-09-09T08:02:55;100341.19;;;29.59;100.00
18145;BME280;14857;41.200;-8.326;2022-09-09T08:05:24;100338.88;;;29.01;100.00
18145;BME280;14857;41.200;-8.326;2022-09-09T08:07:52;100341.97;;;28.98;100.00
18145;BME280;14857;41.200;-8.326;2022-09-09T08:10:23;100345.66;;;29.47;100.00
18145;BME280;14857;41.200;-8.326;2022-09-09T08:12:53;100348.22;;;31.09;100.00
18145;BME280;14857;41.200;-8.326;2022-09-09T08:15:42;100346.22;;;31.39;98.30
18145;BME280;14857;41.200;-8.326;2022-09-09T08:18:12;100355.78;;;29.51;100.00
18145;BME280;14857;41.200;-8.326;2022-09-09T08:20:41;100348.34;;;28.79;100.00
18145;BME280;14857;41.200;-8.326;2022-09-09T08:23:09;100353.03;;;28.65;100.00
18145;BME280;14857;41.200;-8.326;2022-09-09T08:25:40;100351.88;;;28.48;100.00
18145;BME280;14857;41.200;-8.326;2022-09-09T08:28:08;100355.47;;;28.36;100.00
18145;BME280;14857;41.200;-8.326;2022-09-09T08:30:37;100357.41;;;28.22;100.00
18145;BME280;14857;41.200;-8.326;2022-09-09T08:33:06;100359.69;;;27.68;100.00
18145;BME280;14857;41.200;-8.326;2022-09-09T08:35:35;100359.91;;;27.59;100.00
18145;BME280;14857;41.200;-8.326;2022-09-09T08:38:03;100358.06;;;27.60;100.00
18145;BME280;14857;41.200;-8.326;2022-09-09T08:40:42;100361.16;;;27.63;100.00
18145;BME280;14857;41.200;-8.326;2022-09-09T08:43:13;100362.03;;;27.44;100.00
18145;BME280;14857;41.200;-8.326;2022-09-09T08:45:50;100365.38;;;26.87;100.00
18145;BME280;14857;41.200;-8.326;2022-09-09T08:48:38;100372.75;;;27.51;100.00
18145;BME280;14857;41.200;-8.326;2022-09-09T08:51:10;100376.72;;;27.16;100.00
18145;BME280;14857;41.200;-8.326;2022-09-09T08:53:43;100374.94;;;27.87;100.00
18145;BME280;14857;41.200;-8.326;2022-09-09T08:56:17;100369.72;;;28.43;100.00
18145;BME280;14857;41.200;-8.326;2022-09-09T08:58:52;100375.78;;;29.80;100.00
18145;BME280;14857;41.200;-8.326;2022-09-09T09:01:55;100369.97;;;31.37;100.00
18145;BME280;14857;41.200;-8.326;2022-09-09T09:04:56;100377.63;;;33.60;87.24
18145;BME280;14857;41.200;-8.326;2022-09-09T09:07:42;100380.66;;;36.08;74.87
18145;BME280;14857;41.200;-8.326;2022-09-09T09:10:25;100383.97;;;37.61;65.95
18145;BME280;14857;41.200;-8.326;2022-09-09T09:13:15;100396.06;;;36.84;64.81
18145;BME280;14857;41.200;-8.326;2022-09-09T09:15:50;100391.34;;;35.67;71.16
18145;BME280;14857;41.200;-8.326;2022-09-09T09:18:20;100387.59;;;37.47;65.16
18145;BME280;14857;41.200;-8.326;2022-09-09T09:20:56;100386.00;;;38.93;59.75
18145;BME280;14857;41.200;-8.326;2022-09-09T09:23:33;100384.13;;;39.17;57.06
18145;BME280;14857;41.200;-8.326;2022-09-09T09:26:07;100370.81;;;38.71;57.13
18145;BME280;14857;41.200;-8.326;2022-09-09T09:28:40;100379.41;;;38.60;57.15
18145;BME280;14857;41.200;-8.326;2022-09-09T09:31:14;100373.69;;;37.38;60.81
18145;BME280;14857;41.200;-8.326;2022-09-09T09:33:48;100374.34;;;38.77;57.73
18145;BME280;14857;41.200;-8.326;2022-09-09T09:36:20;100384.53;;;41.12;52.67
18145;BME280;14857;41.200;-8.326;2022-09-09T09:38:54;100379.50;;;42.37;48.20
18145;BME280;14857;41.200;-8.326;2022-09-09T09:41:44;100376.81;;;43.43;45.60
18145;BME280;14857;41.200;-8.326;2022-09-09T09:44:26;100377.84;;;44.38;43.17
18145;BME280;14857;41.200;-8.326;2022-09-09T09:47:08;100369.38;;;44.77;41.73
18145;BME280;14857;41.200;-8.326;2022-09-09T09:49:51;100369.25;;;44.65;41.46
18145;BME280;14857;41.200;-8.326;2022-09-09T09:52:22;100372.16;;;44.34;41.78
18145;BME280;14857;41.200;-8.326;2022-09-09T09:54:52;100367.44;;;44.18;41.04
18145;BME280;14857;41.200;-8.326;2022-09-09T09:57:25;100375.09;;;45.36;39.76
18145;BME280;14857;41.200;-8.326;2022-09-09T10:00:12;100364.47;;;45.47;39.50
18145;BME280;14857;41.200;-8.326;2022-09-09T10:02:44;100372.81;;;45.38;38.39
18145;BME280;14857;41.200;-8.326;2022-09-09T10:05:21;100370.69;;;46.43;36.74
18145;BME280;14857;41.200;-8.326;2022-09-09T10:08:01;100373.38;;;47.18;35.47
18145;BME280;14857;41.200;-8.326;2022-09-09T10:10:41;100375.19;;;47.14;35.10
18145;BME280;14857;41.200;-8.326;2022-09-09T10:13:19;100377.53;;;47.24;34.28
18145;BME280;14857;41.200;-8.326;2022-09-09T10:16:02;100377.06;;;47.70;33.68
18145;BME280;14857;41.200;-8.326;2022-09-09T10:18:42;100378.72;;;47.59;33.62
18145;BME280;14857;41.200;-8.326;2022-09-09T10:21:20;100368.78;;;46.15;35.27
18145;BME280;14857;41.200;-8.326;2022-09-09T10:24:30;100362.56;;;45.38;36.55
18145;BME280;14857;41.200;-8.326;2022-09-09T10:27:11;100372.66;;;46.43;35.42
18145;BME280;14857;41.200;-8.326;2022-09-09T10:29:57;100370.81;;;46.26;34.49
18145;BME280;14857;41.200;-8.326;2022-09-09T10:32:49;100363.66;;;47.36;33.09
18145;BME280;14857;41.200;-8.326;2022-09-09T10:35:27;100357.88;;;47.77;32.68
18145;BME280;14857;41.200;-8.326;2022-09-09T10:38:16;100362.91;;;47.15;33.01
18145;BME280;14857;41.200;-8.326;2022-09-09T10:40:58;100351.72;;;46.66;33.54
18145;BME280;14857;41.200;-8.326;2022-09-09T10:43:45;100358.75;;;47.09;32.64
18145;BME280;14857;41.200;-8.326;2022-09-09T10:46:23;100361.59;;;47.21;32.15
18145;BME280;14857;41.200;-8.326;2022-09-09T10:49:08;100355.47;;;46.08;33.53
18145;BME280;14857;41.200;-8.326;2022-09-09T10:51:45;100346.47;;;44.77;34.45
18145;BME280;14857;41.200;-8.326;2022-09-09T10:54:26;100339.22;;;44.38;34.59
18145;BME280;14857;41.200;-8.326;2022-09-09T10:57:00;100343.03;;;44.97;34.90
18145;BME280;14857;41.200;-8.326;2022-09-09T10:59:36;100336.25;;;45.32;33.95
18145;BME280;14857;41.200;-8.326;2022-09-09T11:02:14;100328.50;;;46.59;32.61
18145;BME280;14857;41.200;-8.326;2022-09-09T11:04:51;100330.03;;;46.15;32.49
18145;BME280;14857;41.200;-8.326;2022-09-09T11:07:28;100328.97;;;45.19;33.40
18145;BME280;14857;41.200;-8.326;2022-09-09T11:10:02;100326.22;;;45.99;32.27
18145;BME280;14857;41.200;-8.326;2022-09-09T11:12:36;100325.34;;;45.86;31.31
18145;BME280;14857;41.200;-8.326;2022-09-09T11:15:09;100317.47;;;44.19;32.35
18145;BME280;14857;41.200;-8.326;2022-09-09T11:17:46;100314.91;;;44.95;32.94
18145;BME280;14857;41.200;-8.326;2022-09-09T11:20:17;100313.63;;;45.30;32.20
18145;BME280;14857;41.200;-8.326;2022-09-09T11:22:49;100314.91;;;45.41;32.14
18145;BME280;14857;41.200;-8.326;2022-09-09T11:25:22;100313.19;;;44.73;31.73
18145;BME280;14857;41.200;-8.326;2022-09-09T11:28:07;100309.97;;;45.47;31.28
18145;BME280;14857;41.200;-8.326;2022-09-09T11:30:53;100294.88;;;45.74;30.38
18145;BME280;14857;41.200;-8.326;2022-09-09T11:33:51;100289.72;;;43.81;29.57
18145;BME280;14857;41.200;-8.326;2022-09-09T11:36:51;100298.44;;;45.45;28.94
18145;BME280;14857;41.200;-8.326;2022-09-09T11:42:21;100291.72;;;42.27;30.13
18145;BME280;14857;41.200;-8.326;2022-09-09T11:44:51;100288.56;;;40.88;33.62
18145;BME280;14857;41.200;-8.326;2022-09-09T11:47:23;100283.13;;;41.02;33.41
18145;BME280;14857;41.200;-8.326;2022-09-09T11:50:08;100285.53;;;41.72;32.63
18145;BME280;14857;41.200;-8.326;2022-09-09T11:52:40;100279.34;;;42.60;31.05
18145;BME280;14857;41.200;-8.326;2022-09-09T11:55:28;100278.97;;;42.84;30.34
18145;BME280;14857;41.200;-8.326;2022-09-09T11:57:58;100278.81;;;43.20;30.08
18145;BME280;14857;41.200;-8.326;2022-09-09T12:00:32;100280.56;;;41.60;31.97
18145;BME280;14857;41.200;-8.326;2022-09-09T12:03:02;100267.44;;;41.71;32.94
18145;BME280;14857;41.200;-8.326;2022-09-09T12:05:40;100263.28;;;40.27;33.84
18145;BME280;14857;41.200;-8.326;2022-09-09T12:08:16;100264.06;;;37.01;39.17
18145;BME280;14857;41.200;-8.326;2022-09-09T12:10:54;100255.56;;;37.76;38.17
18145;BME280;14857;41.200;-8.326;2022-09-09T12:13:26;100256.19;;;35.36;41.24
18145;BME280;14857;41.200;-8.326;2022-09-09T12:15:57;100257.94;;;35.62;42.73
18145;BME280;14857;41.200;-8.326;2022-09-09T12:18:32;100243.25;;;34.06;44.54
18145;BME280;14857;41.200;-8.326;2022-09-09T12:21:06;100242.75;;;32.29;47.88
18145;BME280;14857;41.200;-8.326;2022-09-09T12:23:40;100238.63;;;31.81;49.55
18145;BME280;14857;41.200;-8.326;2022-09-09T12:26:32;100239.97;;;31.27;52.54
18145;BME280;14857;41.200;-8.326;2022-09-09T12:29:12;100245.06;;;31.63;53.31
18145;BME280;14857;41.200;-8.326;2022-09-09T12:31:47;100241.44;;;31.58;55.23
18145;BME280;14857;41.200;-8.326;2022-09-09T12:34:29;100235.09;;;31.81;56.40
18145;BME280;14857;41.200;-8.326;2022-09-09T12:37:05;100232.31;;;31.76;55.43
18145;BME280;14857;41.200;-8.326;2022-09-09T12:39:39;100244.31;;;31.28;58.47
18145;BME280;14857;41.200;-8.326;2022-09-09T12:42:20;100249.53;;;31.58;61.52
18145;BME280;14857;41.200;-8.326;2022-09-09T12:44:53;100235.41;;;31.67;62.20
18145;BME280;14857;41.200;-8.326;2022-09-09T12:47:26;100236.75;;;31.02;68.02
18145;BME280;14857;41.200;-8.326;2022-09-09T12:49:57;100243.16;;;30.43;78.08
18145;BME280;14857;41.200;-8.326;2022-09-09T12:52:32;100233.94;;;30.32;81.13
18145;BME280;14857;41.200;-8.326;2022-09-09T12:55:05;100229.44;;;30.67;82.41
18145;BME280;14857;41.200;-8.326;2022-09-09T12:57:37;100227.84;;;30.25;81.51
18145;BME280;14857;41.200;-8.326;2022-09-09T13:00:13;100226.97;;;30.54;82.88
18145;BME280;14857;41.200;-8.326;2022-09-09T13:02:49;100237.53;;;30.91;83.13
18145;BME280;14857;41.200;-8.326;2022-09-09T13:05:21;100235.88;;;31.13;82.86
18145;BME280;14857;41.200;-8.326;2022-09-09T13:07:50;100221.81;;;31.11;82.81
18145;BME280;14857;41.200;-8.326;2022-09-09T13:10:24;100228.72;;;31.07;81.87
18145;BME280;14857;41.200;-8.326;2022-09-09T13:13:03;100234.09;;;31.30;80.62
18145;BME280;14857;41.200;-8.326;2022-09-09T13:15:32;100234.31;;;31.40;76.93
18145;BME280;14857;41.200;-8.326;2022-09-09T13:18:04;100222.97;;;31.66;75.60